createdAt,value
2022-07-30T00:00:31.197Z,100429.50
2022-07-30T00:02:59.446Z,100427.69
2022-07-30T00:05:28.983Z,100426.44
2022-07-30T00:07:56.848Z,100431.19
2022-07-30T00:10:25.121Z,100434.91
2022-07-30T00:12:53.031Z,100440.34
2022-07-30T00:15:21.312Z,100444.56
2022-07-30T00:17:49.512Z,100442.03
2022-07-30T00:20:18.489Z,100446.13
2022-07-30T00:22:47.980Z,100448.16
2022-07-30T00:25:16.382Z,100445.62
2022-07-30T00:27:45.375Z,100446.19
2022-07-30T00:30:13.932Z,100444.81
2022-07-30T00:32:43.241Z,100436.69
2022-07-30T00:35:11.813Z,100437.91
2022-07-30T00:37:39.939Z,100443.69
2022-07-30T00:40:10.794Z,100448.59
2022-07-30T00:42:40.956Z,100444.91
2022-07-30T00:45:10.602Z,100444.37
2022-07-30T00:47:39.821Z,100440.84
2022-07-30T00:50:10.179Z,100433.03
2022-07-30T00:52:39.208Z,100433.22
2022-07-30T00:55:10.765Z,100436.28
2022-07-30T00:57:39.286Z,100442.41
2022-07-30T01:00:10.330Z,100438.53
2022-07-30T01:02:38.816Z,100431.66
2022-07-30T01:05:08.301Z,100425.25
2022-07-30T01:07:36.596Z,100439.12
2022-07-30T01:10:05.919Z,100431.84
2022-07-30T01:12:35.332Z,100431.19
2022-07-30T01:15:06.100Z,100424.94
2022-07-30T01:17:35.228Z,100425.12
2022-07-30T01:20:06.219Z,100409.38
2022-07-30T01:22:46.528Z,100402.94
2022-07-30T01:25:22.793Z,100402.50
2022-07-30T01:27:57.714Z,100393.56
2022-07-30T01:30:28.794Z,100384.62
2022-07-30T01:32:59.539Z,100388.84
2022-07-30T01:35:29.734Z,100388.38
2022-07-30T01:38:00.881Z,100384.31
2022-07-30T01:40:30.424Z,100384.50
2022-07-30T01:43:02.398Z,100386.72
2022-07-30T01:45:33.783Z,100396.69
2022-07-30T01:48:12.056Z,100400.91
2022-07-30T01:50:45.021Z,100412.06
2022-07-30T01:53:17.717Z,100400.22
2022-07-30T01:55:46.882Z,100408.16
2022-07-30T01:58:20.083Z,100407.31
2022-07-30T02:00:50.626Z,100418.44
2022-07-30T02:03:18.987Z,100423.34
2022-07-30T02:05:54.943Z,100420.66
2022-07-30T02:08:29.806Z,100417.09
2022-07-30T02:11:04.319Z,100420.13
2022-07-30T02:13:40.927Z,100420.31
2022-07-30T02:16:14.701Z,100419.31
2022-07-30T02:18:52.016Z,100421.19
2022-07-30T02:21:22.006Z,100420.31
2022-07-30T02:23:51.882Z,100412.19
2022-07-30T02:26:25.360Z,100416.44
2022-07-30T02:28:59.020Z,100416.44
2022-07-30T02:31:29.432Z,100417.59
2022-07-30T02:34:00.363Z,100420.50
2022-07-30T02:36:29.720Z,100439.41
2022-07-30T02:38:59.250Z,100435.88
2022-07-30T02:41:30.488Z,100433.16
2022-07-30T02:44:01.808Z,100439.78
2022-07-30T02:46:31.494Z,100440.13
2022-07-30T02:49:03.096Z,100439.09
2022-07-30T02:51:32.561Z,100443.19
2022-07-30T02:54:03.958Z,100434.72
2022-07-30T02:56:32.805Z,100433.03
2022-07-30T02:59:04.054Z,100431.00
2022-07-30T03:01:33.954Z,100427.63
2022-07-30T03:04:03.746Z,100420.88
2022-07-30T03:06:32.976Z,100418.84
2022-07-30T03:09:03.265Z,100417.97
2022-07-30T03:11:32.773Z,100427.63
2022-07-30T03:14:03.918Z,100427.25
2022-07-30T03:16:35.230Z,100429.97
2022-07-30T03:19:07.647Z,100429.28
2022-07-30T03:21:37.758Z,100426.91
2022-07-30T03:24:08.359Z,100434.53
2022-07-30T03:26:38.242Z,100444.47
2022-07-30T03:29:08.470Z,100436.69
2022-07-30T03:31:40.624Z,100441.94
2022-07-30T03:34:09.912Z,100441.28
2022-07-30T03:36:41.572Z,100439.59
2022-07-30T03:39:10.318Z,100437.72
2022-07-30T03:41:40.030Z,100433.66
2022-07-30T03:44:10.380Z,100442.44
2022-07-30T03:46:39.178Z,100438.25
2022-07-30T03:49:07.422Z,100445.31
2022-07-30T03:51:37.817Z,100443.81
2022-07-30T03:54:13.179Z,100444.13
2022-07-30T03:56:43.789Z,100440.56
2022-07-30T03:59:14.971Z,100439.06
2022-07-30T04:01:43.365Z,100445.00
2022-07-30T04:04:12.373Z,100443.97
2022-07-30T04:06:42.890Z,100455.28
2022-07-30T04:09:12.805Z,100463.72
2022-07-30T04:11:42.071Z,100461.66
2022-07-30T04:14:10.864Z,100450.56
2022-07-30T04:16:45.868Z,100447.69
2022-07-30T04:19:20.719Z,100450.41
2022-07-30T04:21:50.262Z,100455.97
2022-07-30T04:24:19.839Z,100464.75
2022-07-30T04:26:48.946Z,100462.56
2022-07-30T04:29:21.415Z,100458.00
2022-07-30T04:31:54.764Z,100469.00
2022-07-30T04:34:24.364Z,100463.41
2022-07-30T04:36:52.565Z,100457.03
2022-07-30T04:39:20.866Z,100449.53
2022-07-30T04:41:50.152Z,100462.88
2022-07-30T04:44:21.737Z,100459.66
2022-07-30T04:46:50.895Z,100464.56
2022-07-30T04:49:22.492Z,100449.84
2022-07-30T04:51:52.464Z,100459.94
2022-07-30T04:54:22.458Z,100452.84
2022-07-30T04:56:54.279Z,100449.81
2022-07-30T04:59:26.401Z,100450.63
2022-07-30T05:01:58.315Z,100440.50
2022-07-30T05:04:30.217Z,100445.56
2022-07-30T05:06:59.346Z,100436.94
2022-07-30T05:09:28.625Z,100433.37
2022-07-30T05:11:57.939Z,100437.81
2022-07-30T05:14:27.144Z,100441.34
2022-07-30T05:16:56.140Z,100435.28
2022-07-30T05:19:25.161Z,100449.09
2022-07-30T05:21:54.685Z,100434.78
2022-07-30T05:24:22.960Z,100459.94
2022-07-30T05:26:51.111Z,100461.78
2022-07-30T05:29:20.309Z,100443.72
2022-07-30T05:31:49.713Z,100452.16
2022-07-30T05:34:17.960Z,100453.72
2022-07-30T05:36:46.695Z,100461.22
2022-07-30T05:39:16.774Z,100454.47
2022-07-30T05:41:45.279Z,100468.34
2022-07-30T05:44:13.847Z,100464.28
2022-07-30T05:46:42.737Z,100474.09
2022-07-30T05:49:10.693Z,100483.91
2022-07-30T05:51:39.395Z,100480.69
2022-07-30T05:54:07.306Z,100476.16
2022-07-30T05:56:37.939Z,100486.97
2022-07-30T05:59:06.221Z,100478.34
2022-07-30T06:01:34.902Z,100487.66
2022-07-30T06:04:03.991Z,100485.25
2022-07-30T06:06:32.784Z,100483.41
2022-07-30T06:09:00.802Z,100491.69
2022-07-30T06:11:29.899Z,100500.31
2022-07-30T06:13:59.101Z,100500.66
2022-07-30T06:16:27.045Z,100506.13
2022-07-30T06:18:55.246Z,100517.16
2022-07-30T06:21:23.723Z,100517.00
2022-07-30T06:23:52.750Z,100525.63
2022-07-30T06:26:21.566Z,100522.91
2022-07-30T06:28:49.612Z,100527.50
2022-07-30T06:31:19.489Z,100524.25
2022-07-30T06:33:47.992Z,100526.31
2022-07-30T06:36:15.886Z,100535.75
2022-07-30T06:38:45.385Z,100530.88
2022-07-30T06:41:15.660Z,100538.47
2022-07-30T06:43:44.882Z,100541.84
2022-07-30T06:46:14.520Z,100539.84
2022-07-30T06:48:43.916Z,100538.63
2022-07-30T06:51:12.359Z,100544.53
2022-07-30T06:53:42.535Z,100538.13
2022-07-30T06:56:15.829Z,100542.37
2022-07-30T06:58:44.548Z,100533.91
2022-07-30T07:01:15.846Z,100546.09
2022-07-30T07:03:45.312Z,100544.06
2022-07-30T07:06:13.518Z,100546.75
2022-07-30T07:08:42.998Z,100545.91
2022-07-30T07:11:11.790Z,100547.06
2022-07-30T07:13:41.698Z,100542.37
2022-07-30T07:16:10.701Z,100550.97
2022-07-30T07:18:39.999Z,100549.28
2022-07-30T07:21:09.882Z,100555.53
2022-07-30T07:23:42.316Z,100544.91
2022-07-30T07:26:14.460Z,100545.25
2022-07-30T07:28:42.443Z,100538.63
2022-07-30T07:31:11.394Z,100539.16
2022-07-30T07:34:00.387Z,100532.72
2022-07-30T07:36:29.691Z,100535.25
2022-07-30T07:38:57.685Z,100530.69
2022-07-30T07:41:26.373Z,100527.63
2022-07-30T07:43:54.235Z,100534.06
2022-07-30T07:46:33.750Z,100536.59
2022-07-30T07:49:02.862Z,100542.84
2022-07-30T07:51:34.749Z,100543.19
2022-07-30T07:54:22.824Z,100549.59
2022-07-30T07:56:52.879Z,100555.50
2022-07-30T07:59:23.445Z,100556.19
2022-07-30T08:01:56.005Z,100565.00
2022-07-30T08:04:26.439Z,100560.44
2022-07-30T08:06:58.287Z,100567.84
2022-07-30T08:09:43.583Z,100562.09
2022-07-30T08:12:13.283Z,100559.72
2022-07-30T08:14:43.396Z,100570.19
2022-07-30T08:17:14.495Z,100572.06
2022-07-30T08:19:44.332Z,100569.69
2022-07-30T08:22:13.976Z,100569.37
2022-07-30T08:24:42.064Z,100572.41
2022-07-30T08:27:10.339Z,100572.53
2022-07-30T08:29:38.332Z,100562.59
2022-07-30T08:32:06.913Z,100557.50
2022-07-30T08:34:36.306Z,100551.44
2022-07-30T08:37:04.477Z,100559.72
2022-07-30T08:39:33.658Z,100568.00
2022-07-30T08:42:05.124Z,100569.19
2022-07-30T08:44:36.254Z,100572.41
2022-07-30T08:47:08.049Z,100569.88
2022-07-30T08:49:40.661Z,100576.28
2022-07-30T08:52:09.647Z,100581.34
2022-07-30T08:54:40.182Z,100576.31
2022-07-30T08:57:08.961Z,100575.47
2022-07-30T08:59:59.295Z,100584.78
2022-07-30T09:02:29.414Z,100581.34
2022-07-30T09:04:57.816Z,100578.66
2022-07-30T09:07:26.371Z,100578.34
2022-07-30T09:09:57.476Z,100571.75
2022-07-30T09:12:41.425Z,100587.62
2022-07-30T09:15:14.149Z,100581.72
2022-07-30T09:17:51.375Z,100585.44
2022-07-30T09:20:20.922Z,100596.94
2022-07-30T09:22:50.681Z,100593.59
2022-07-30T09:25:39.147Z,100610.63
2022-07-30T09:28:16.173Z,100615.38
2022-07-30T09:30:53.655Z,100613.87
2022-07-30T09:33:36.440Z,100619.63
2022-07-30T09:36:08.911Z,100609.53
2022-07-30T09:38:50.473Z,100608.16
2022-07-30T09:41:39.262Z,100605.44
2022-07-30T09:44:08.255Z,100606.28
2022-07-30T09:46:45.414Z,100606.28
2022-07-30T09:49:16.255Z,100611.88
2022-07-30T09:51:54.559Z,100614.25
2022-07-30T09:54:26.476Z,100610.00
2022-07-30T09:57:23.161Z,100610.84
2022-07-30T09:59:55.459Z,100608.16
2022-07-30T10:02:32.310Z,100607.81
2022-07-30T10:05:14.940Z,100607.13
2022-07-30T10:07:52.144Z,100606.25
2022-07-30T10:10:25.364Z,100610.97
2022-07-30T10:12:59.211Z,100611.13
2022-07-30T10:15:30.742Z,100610.13
2022-07-30T10:18:01.523Z,100616.75
2022-07-30T10:20:32.126Z,100616.06
2022-07-30T10:23:08.787Z,100617.06
2022-07-30T10:25:49.454Z,100615.66
2022-07-30T10:28:25.966Z,100619.56
2022-07-30T10:30:56.294Z,100619.09
2022-07-30T10:33:34.972Z,100619.75
2022-07-30T10:36:06.049Z,100617.16
2022-07-30T10:38:43.026Z,100614.78
2022-07-30T10:41:44.232Z,100618.16
2022-07-30T10:44:29.025Z,100623.75
2022-07-30T10:47:07.043Z,100619.28
2022-07-30T10:49:40.912Z,100626.28
2022-07-30T10:52:10.347Z,100624.41
2022-07-30T10:54:44.534Z,100625.72
2022-07-30T10:57:32.326Z,100629.97
2022-07-30T11:00:17.730Z,100629.63
2022-07-30T11:03:40.552Z,100629.63
2022-07-30T11:06:29.267Z,100629.19
2022-07-30T11:08:58.248Z,100627.31
2022-07-30T11:12:04.806Z,100633.56
2022-07-30T11:15:06.864Z,100633.34
2022-07-30T11:18:12.351Z,100624.44
2022-07-30T11:20:43.267Z,100631.53
2022-07-30T11:23:40.331Z,100631.81
2022-07-30T11:26:13.936Z,100638.88
2022-07-30T11:28:45.403Z,100627.59
2022-07-30T11:31:49.865Z,100630.81
2022-07-30T11:34:30.985Z,100632.12
2022-07-30T11:37:22.357Z,100632.63
2022-07-30T11:40:13.960Z,100627.00
2022-07-30T11:42:43.546Z,100629.44
2022-07-30T11:45:26.800Z,100628.88
2022-07-30T11:47:58.097Z,100627.69
2022-07-30T11:50:29.655Z,100625.62
2022-07-30T11:52:59.983Z,100624.06
2022-07-30T11:55:30.319Z,100623.22
2022-07-30T11:57:59.742Z,100626.91
2022-07-30T12:00:35.567Z,100621.00
2022-07-30T12:03:09.706Z,100624.00
2022-07-30T12:05:39.698Z,100610.25
2022-07-30T12:08:08.455Z,100625.16
2022-07-30T12:10:45.295Z,100610.78
2022-07-30T12:13:16.027Z,100616.66
2022-07-30T12:15:46.521Z,100621.31
2022-07-30T12:18:26.417Z,100618.28
2022-07-30T12:20:59.516Z,100612.50
2022-07-30T12:23:28.611Z,100615.03
2022-07-30T12:25:56.959Z,100613.09
2022-07-30T12:28:28.091Z,100615.53
2022-07-30T12:30:57.432Z,100611.69
2022-07-30T12:33:26.130Z,100613.75
2022-07-30T12:35:56.662Z,100614.78
2022-07-30T12:38:26.253Z,100615.56
2022-07-30T12:40:56.400Z,100615.38
2022-07-30T12:43:47.600Z,100609.47
2022-07-30T12:46:18.842Z,100609.47
2022-07-30T12:48:55.239Z,100617.44
2022-07-30T12:51:26.759Z,100609.91
2022-07-30T12:53:56.388Z,100607.34
2022-07-30T12:56:26.153Z,100605.34
2022-07-30T12:58:55.789Z,100602.56
2022-07-30T13:01:41.921Z,100601.66
2022-07-30T13:04:10.974Z,100607.34
2022-07-30T13:06:42.028Z,100604.69
2022-07-30T13:09:20.124Z,100605.63
2022-07-30T13:11:50.004Z,100604.31
2022-07-30T13:14:18.316Z,100606.50
2022-07-30T13:16:46.590Z,100598.88
2022-07-30T13:19:14.510Z,100610.56
2022-07-30T13:21:49.898Z,100604.13
2022-07-30T13:24:18.500Z,100606.28
2022-07-30T13:26:48.023Z,100609.34
2022-07-30T13:29:19.030Z,100602.38
2022-07-30T13:31:47.234Z,100610.78
2022-07-30T13:34:15.094Z,100614.78
2022-07-30T13:36:44.760Z,100618.28
2022-07-30T13:39:13.176Z,100618.78
2022-07-30T13:41:42.831Z,100621.41
2022-07-30T13:44:10.798Z,100624.16
2022-07-30T13:46:41.174Z,100624.84
2022-07-30T13:49:10.777Z,100616.94
2022-07-30T13:51:39.130Z,100625.62
2022-07-30T13:54:08.367Z,100619.06
2022-07-30T13:56:40.804Z,100624.75
2022-07-30T13:59:09.301Z,100628.03
2022-07-30T14:01:38.107Z,100631.19
2022-07-30T14:04:06.801Z,100619.94
2022-07-30T14:06:34.629Z,100621.38
2022-07-30T14:09:02.544Z,100627.59
2022-07-30T14:11:32.568Z,100622.78
2022-07-30T14:14:00.506Z,100621.22
2022-07-30T14:16:44.842Z,100618.75
2022-07-30T14:19:22.721Z,100620.03
2022-07-30T14:21:53.618Z,100623.47
2022-07-30T14:24:22.207Z,100618.00
2022-07-30T14:26:55.863Z,100613.06
2022-07-30T14:29:27.067Z,100618.75
2022-07-30T14:31:55.137Z,100613.75
2022-07-30T14:34:22.995Z,100610.63
2022-07-30T14:36:51.175Z,100606.09
2022-07-30T14:39:19.084Z,100608.53
2022-07-30T14:41:46.924Z,100603.37
2022-07-30T14:44:16.635Z,100600.09
2022-07-30T14:46:52.085Z,100602.47
2022-07-30T14:49:21.281Z,100606.91
2022-07-30T14:51:49.178Z,100598.38
2022-07-30T14:54:17.133Z,100601.28
2022-07-30T14:56:45.203Z,100596.66
2022-07-30T14:59:13.207Z,100599.37
2022-07-30T15:01:43.780Z,100594.97
2022-07-30T15:04:12.495Z,100596.97
2022-07-30T15:06:41.796Z,100593.69
2022-07-30T15:09:10.406Z,100594.69
2022-07-30T15:12:08.012Z,100601.38
2022-07-30T15:14:28.402Z,100592.16
2022-07-30T15:17:03.905Z,100600.66
2022-07-30T15:19:32.372Z,100597.25
2022-07-30T15:22:02.698Z,100599.72
2022-07-30T15:24:32.162Z,100597.09
2022-07-30T15:27:00.504Z,100603.59
2022-07-30T15:29:30.134Z,100600.78
2022-07-30T15:32:01.860Z,100594.69
2022-07-30T15:34:34.413Z,100591.12
2022-07-30T15:37:03.339Z,100592.19
2022-07-30T15:39:32.988Z,100593.34
2022-07-30T15:42:01.991Z,100598.09
2022-07-30T15:44:31.978Z,100594.28
2022-07-30T15:47:02.205Z,100593.37
2022-07-30T15:49:30.438Z,100594.00
2022-07-30T15:51:59.994Z,100595.63
2022-07-30T15:54:28.795Z,100590.03
2022-07-30T15:57:01.216Z,100596.00
2022-07-30T15:59:30.259Z,100586.25
2022-07-30T16:01:58.855Z,100580.09
2022-07-30T16:04:31.986Z,100586.28
2022-07-30T16:07:01.037Z,100587.78
2022-07-30T16:09:29.187Z,100589.03
2022-07-30T16:11:57.195Z,100585.19
2022-07-30T16:14:27.126Z,100588.50
2022-07-30T16:16:55.398Z,100586.37
2022-07-30T16:19:23.467Z,100584.25
2022-07-30T16:21:53.077Z,100590.78
2022-07-30T16:24:21.239Z,100586.16
2022-07-30T16:26:50.541Z,100588.22
2022-07-30T16:29:18.840Z,100593.13
2022-07-30T16:31:47.227Z,100585.09
2022-07-30T16:34:15.317Z,100595.75
2022-07-30T16:36:43.282Z,100595.38
2022-07-30T16:39:12.800Z,100594.78
2022-07-30T16:41:40.989Z,100592.53
2022-07-30T16:44:09.390Z,100590.66
2022-07-30T16:46:38.676Z,100593.59
2022-07-30T16:49:07.181Z,100593.13
2022-07-30T16:51:35.232Z,100595.00
2022-07-30T16:54:03.747Z,100593.09
2022-07-30T16:56:33.032Z,100597.66
2022-07-30T16:59:00.912Z,100589.69
2022-07-30T17:01:29.668Z,100590.94
2022-07-30T17:03:58.780Z,100585.47
2022-07-30T17:06:27.034Z,100594.72
2022-07-30T17:08:55.543Z,100593.37
2022-07-30T17:11:47.669Z,100599.13
2022-07-30T17:14:14.016Z,100603.97
2022-07-30T17:16:42.293Z,100603.22
2022-07-30T17:19:10.181Z,100606.28
2022-07-30T17:21:38.976Z,100609.87
2022-07-30T17:24:11.323Z,100610.03
2022-07-30T17:26:42.840Z,100610.81
2022-07-30T17:29:14.283Z,100607.97
2022-07-30T17:31:45.258Z,100615.06
2022-07-30T17:34:18.144Z,100614.59
2022-07-30T17:36:51.766Z,100616.84
2022-07-30T17:40:18.965Z,100610.53
2022-07-30T17:42:10.455Z,100610.19
2022-07-30T17:44:39.342Z,100613.19
2022-07-30T17:47:14.005Z,100609.59
2022-07-30T17:49:43.024Z,100616.34
2022-07-30T17:52:11.154Z,100610.69
2022-07-30T17:54:39.219Z,100609.59
2022-07-30T17:57:07.427Z,100616.56
2022-07-30T17:59:35.575Z,100608.44
2022-07-30T18:02:04.703Z,100611.81
2022-07-30T18:04:35.094Z,100622.59
2022-07-30T18:07:03.522Z,100622.06
2022-07-30T18:09:39.104Z,100621.22
2022-07-30T18:12:08.896Z,100616.00
2022-07-30T18:14:37.279Z,100619.66
2022-07-30T18:17:07.457Z,100621.62
2022-07-30T18:19:39.549Z,100617.22
2022-07-30T18:22:08.977Z,100614.62
2022-07-30T18:24:39.990Z,100608.94
2022-07-30T18:27:08.785Z,100612.88
2022-07-30T18:29:36.663Z,100619.13
2022-07-30T18:32:05.261Z,100618.00
2022-07-30T18:34:33.840Z,100614.44
2022-07-30T18:37:03.038Z,100617.00
2022-07-30T18:39:30.906Z,100618.50
2022-07-30T18:41:59.168Z,100620.03
2022-07-30T18:44:27.060Z,100615.66
2022-07-30T18:46:54.949Z,100622.88
2022-07-30T18:49:36.130Z,100629.38
2022-07-30T18:52:08.045Z,100624.25
2022-07-30T18:54:36.869Z,100619.28
2022-07-30T18:57:05.897Z,100626.34
2022-07-30T18:59:33.840Z,100624.56
2022-07-30T19:02:04.610Z,100623.81
2022-07-30T19:04:32.976Z,100622.63
2022-07-30T19:07:01.338Z,100626.84
2022-07-30T19:09:30.539Z,100630.50
2022-07-30T19:11:58.424Z,100631.56
2022-07-30T19:14:26.599Z,100630.16
2022-07-30T19:16:54.479Z,100635.00
2022-07-30T19:19:27.796Z,100637.16
2022-07-30T19:21:55.776Z,100641.34
2022-07-30T19:24:23.737Z,100644.50
2022-07-30T19:26:57.422Z,100639.28
2022-07-30T19:29:25.396Z,100652.06
2022-07-30T19:31:53.288Z,100657.06
2022-07-30T19:34:21.663Z,100655.44
2022-07-30T19:36:49.595Z,100654.47
2022-07-30T19:39:21.272Z,100657.03
2022-07-30T19:42:02.450Z,100658.78
2022-07-30T19:44:36.772Z,100656.97
2022-07-30T19:47:07.210Z,100657.97
2022-07-30T19:49:40.428Z,100668.69
2022-07-30T19:52:22.830Z,100653.47
2022-07-30T19:54:51.799Z,100662.66
2022-07-30T19:57:20.611Z,100658.97
2022-07-30T20:00:00.249Z,100659.28
2022-07-30T20:02:40.319Z,100655.44
2022-07-30T20:05:11.698Z,100655.28
2022-07-30T20:07:44.631Z,100656.97
2022-07-30T20:10:13.125Z,100661.25
2022-07-30T20:12:49.397Z,100655.34
2022-07-30T20:15:19.737Z,100661.06
2022-07-30T20:17:47.651Z,100660.72
2022-07-30T20:20:15.786Z,100653.78
2022-07-30T20:22:44.210Z,100655.31
2022-07-30T20:25:13.386Z,100652.12
2022-07-30T20:27:42.205Z,100658.53
2022-07-30T20:30:12.725Z,100661.59
2022-07-30T20:32:46.482Z,100659.41
2022-07-30T20:35:15.266Z,100652.44
2022-07-30T20:37:55.356Z,100662.12
2022-07-30T20:40:26.680Z,100658.75
2022-07-30T20:42:55.398Z,100660.44
2022-07-30T20:45:24.649Z,100662.47
2022-07-30T20:47:56.463Z,100662.78
2022-07-30T20:50:30.207Z,100662.09
2022-07-30T20:52:59.677Z,100661.78
2022-07-30T20:55:28.022Z,100661.25
2022-07-30T20:58:07.971Z,100660.25
2022-07-30T21:00:49.286Z,100667.19
2022-07-30T21:03:21.489Z,100667.84
2022-07-30T21:05:51.298Z,100666.78
2022-07-30T21:08:21.261Z,100664.06
2022-07-30T21:10:55.120Z,100660.16
2022-07-30T21:13:24.880Z,100667.94
2022-07-30T21:16:03.087Z,100669.28
2022-07-30T21:18:33.120Z,100665.22
2022-07-30T21:21:04.985Z,100663.50
2022-07-30T21:23:33.997Z,100661.78
2022-07-30T21:26:05.839Z,100662.09
2022-07-30T21:28:49.992Z,100667.00
2022-07-30T21:31:18.170Z,100655.13
2022-07-30T21:33:47.547Z,100660.81
2022-07-30T21:36:15.746Z,100655.88
2022-07-30T21:38:43.927Z,100655.38
2022-07-30T21:41:14.137Z,100656.16
2022-07-30T21:43:44.409Z,100655.81
2022-07-30T21:46:12.884Z,100665.56
2022-07-30T21:48:43.261Z,100668.19
2022-07-30T21:51:13.626Z,100660.59
2022-07-30T21:53:45.319Z,100660.69
2022-07-30T21:56:15.922Z,100663.87
2022-07-30T21:58:45.028Z,100657.25
2022-07-30T22:01:17.023Z,100661.38
2022-07-30T22:04:01.461Z,100663.56
2022-07-30T22:06:34.495Z,100659.78
2022-07-30T22:09:09.897Z,100664.84
2022-07-30T22:11:47.665Z,100657.34
2022-07-30T22:14:15.871Z,100664.00
2022-07-30T22:19:31.992Z,100651.00
2022-07-30T22:22:05.102Z,100652.97
2022-07-30T22:24:49.412Z,100660.44
2022-07-30T22:27:17.338Z,100657.09
2022-07-30T22:29:50.253Z,100661.25
2022-07-30T22:32:23.107Z,100657.00
2022-07-30T22:34:51.776Z,100658.16
2022-07-30T22:37:22.283Z,100659.00
2022-07-30T22:39:52.352Z,100658.69
2022-07-30T22:42:24.332Z,100657.00
2022-07-30T22:44:53.155Z,100665.09
2022-07-30T22:50:11.597Z,100664.66
2022-07-30T22:52:44.279Z,100655.41
2022-07-30T22:55:23.733Z,100652.72
2022-07-30T22:57:52.624Z,100658.25
2022-07-30T23:00:27.715Z,100662.97
2022-07-30T23:02:57.687Z,100659.25
2022-07-30T23:05:26.307Z,100663.81
2022-07-30T23:07:56.300Z,100670.03
2022-07-30T23:10:25.409Z,100666.78
2022-07-30T23:12:32.423Z,100654.59
2022-07-30T23:12:33.917Z,100661.41
2022-07-30T23:12:56.055Z,100672.50
2022-07-30T23:15:24.573Z,100676.34
2022-07-30T23:17:53.109Z,100674.81
2022-07-30T23:20:21.760Z,100668.69
2022-07-30T23:22:50.524Z,100663.78
2022-07-30T23:25:19.913Z,100660.22
2022-07-30T23:27:47.871Z,100668.59
2022-07-30T23:30:16.114Z,100667.37
2022-07-30T23:32:44.188Z,100675.75
2022-07-30T23:35:12.228Z,100675.19
2022-07-30T23:37:47.633Z,100666.56
2022-07-30T23:40:17.174Z,100660.34
2022-07-30T23:42:47.271Z,100664.19
2022-07-30T23:45:15.249Z,100665.31
2022-07-30T23:48:00.501Z,100665.22
2022-07-30T23:50:31.291Z,100653.72
2022-07-30T23:52:59.481Z,100661.81
2022-07-30T23:55:27.955Z,100659.12
2022-07-30T23:57:57.937Z,100666.34
